createdAt,value
2019-03-06T00:01:22.747Z,3.90
2019-03-06T00:03:50.205Z,5.13
2019-03-06T00:06:17.781Z,3.93
2019-03-06T00:08:45.306Z,5.30
2019-03-06T00:11:12.808Z,4.47
2019-03-06T00:13:40.257Z,4.60
2019-03-06T00:16:07.903Z,5.40
2019-03-06T00:18:35.249Z,5.93
2019-03-06T00:21:03.296Z,4.03
2019-03-06T00:23:30.755Z,4.70
2019-03-06T00:25:58.377Z,4.57
2019-03-06T00:28:25.813Z,4.40
2019-03-06T00:30:53.354Z,5.20
2019-03-06T00:33:20.933Z,6.90
2019-03-06T00:35:49.611Z,6.50
2019-03-06T00:38:17.067Z,4.80
2019-03-06T00:40:49.825Z,6.27
2019-03-06T00:43:17.242Z,5.17
2019-03-06T00:45:44.949Z,5.33
2019-03-06T00:48:12.402Z,8.40
2019-03-06T00:50:39.925Z,5.97
2019-03-06T00:53:07.324Z,5.97
2019-03-06T00:55:34.765Z,7.17
2019-03-06T00:58:02.317Z,6.77
2019-03-06T01:00:29.762Z,5.97
2019-03-06T01:02:57.199Z,6.63
2019-03-06T01:05:25.039Z,6.67
2019-03-06T01:07:52.403Z,6.93
2019-03-06T01:10:20.049Z,9.57
2019-03-06T01:12:47.618Z,13.53
2019-03-06T01:15:15.224Z,8.97
2019-03-06T01:17:42.793Z,11.13
2019-03-06T01:20:10.535Z,13.57
2019-03-06T01:22:38.015Z,13.63
2019-03-06T01:25:06.095Z,14.77
2019-03-06T01:27:33.466Z,15.07
2019-03-06T01:30:00.963Z,14.30
2019-03-06T01:32:29.003Z,16.80
2019-03-06T01:35:14.796Z,14.80
2019-03-06T01:37:53.461Z,13.17
2019-03-06T01:40:34.496Z,13.20
2019-03-06T01:43:08.022Z,10.70
2019-03-06T01:45:35.456Z,12.30
2019-03-06T01:48:02.905Z,12.83
2019-03-06T01:50:30.566Z,17.07
2019-03-06T01:52:58.008Z,14.73
2019-03-06T01:55:25.377Z,15.97
2019-03-06T01:57:52.932Z,13.37
2019-03-06T02:00:21.044Z,14.70
2019-03-06T02:02:48.746Z,14.10
2019-03-06T02:05:16.647Z,16.73
2019-03-06T02:07:44.335Z,17.47
2019-03-06T02:10:12.540Z,14.77
2019-03-06T02:12:39.999Z,14.33
2019-03-06T02:15:08.644Z,14.20
2019-03-06T02:17:36.324Z,13.47
2019-03-06T02:20:04.962Z,12.30
2019-03-06T02:22:32.510Z,15.10
2019-03-06T02:24:59.960Z,11.50
2019-03-06T02:27:27.445Z,14.37
2019-03-06T02:29:55.020Z,11.53
2019-03-06T02:32:22.518Z,16.40
2019-03-06T02:34:49.992Z,9.60
2019-03-06T02:37:17.409Z,13.53
2019-03-06T02:39:44.873Z,17.70
2019-03-06T02:42:12.321Z,11.60
2019-03-06T02:44:40.232Z,17.37
2019-03-06T02:47:07.743Z,15.63
2019-03-06T02:49:35.188Z,18.83
2019-03-06T02:52:02.664Z,19.47
2019-03-06T02:54:30.102Z,20.70
2019-03-06T02:56:57.559Z,16.87
2019-03-06T02:59:34.242Z,15.80
2019-03-06T03:02:27.453Z,17.73
2019-03-06T03:05:20.796Z,19.17
2019-03-06T03:07:48.290Z,17.40
2019-03-06T03:10:15.819Z,16.30
2019-03-06T03:12:43.291Z,16.30
2019-03-06T03:15:10.842Z,15.43
2019-03-06T03:17:38.268Z,16.70
2019-03-06T03:20:05.932Z,17.10
2019-03-06T03:22:33.453Z,15.33
2019-03-06T03:25:00.933Z,14.83
2019-03-06T03:27:28.405Z,12.20
2019-03-06T03:29:55.988Z,12.90
2019-03-06T03:32:23.502Z,15.57
2019-03-06T03:34:50.951Z,12.73
2019-03-06T03:37:18.323Z,12.93
2019-03-06T03:39:45.770Z,11.63
2019-03-06T03:42:13.262Z,10.23
2019-03-06T03:44:40.658Z,11.10
2019-03-06T03:47:08.111Z,10.20
2019-03-06T03:49:35.593Z,9.97
2019-03-06T03:52:03.073Z,11.37
2019-03-06T03:54:30.490Z,12.50
2019-03-06T03:56:57.881Z,12.23
2019-03-06T03:59:25.559Z,12.77
2019-03-06T04:01:53.247Z,13.17
2019-03-06T04:04:20.782Z,11.40
2019-03-06T04:06:48.424Z,14.83
2019-03-06T04:09:15.975Z,13.27
2019-03-06T04:11:43.361Z,13.00
2019-03-06T04:14:11.291Z,12.27
2019-03-06T04:16:38.731Z,11.50
2019-03-06T04:19:06.308Z,14.60
2019-03-06T04:21:33.867Z,13.63
2019-03-06T04:24:01.474Z,13.93
2019-03-06T04:26:29.211Z,9.83
2019-03-06T04:28:56.975Z,14.77
2019-03-06T04:31:24.446Z,16.27
2019-03-06T04:33:51.820Z,13.00
2019-03-06T04:36:19.247Z,14.17
2019-03-06T04:38:46.689Z,16.77
2019-03-06T04:41:14.258Z,13.03
2019-03-06T04:43:41.949Z,14.07
2019-03-06T04:46:09.501Z,13.00
2019-03-06T04:48:36.924Z,12.87
2019-03-06T04:51:04.306Z,14.10
2019-03-06T04:53:31.751Z,12.70
2019-03-06T04:55:59.193Z,16.17
2019-03-06T04:58:26.615Z,17.60
2019-03-06T05:00:54.191Z,29.67
2019-03-06T05:03:21.726Z,36.33
2019-03-06T05:05:49.241Z,32.87
2019-03-06T05:08:16.613Z,22.87
2019-03-06T05:10:44.256Z,20.60
2019-03-06T05:13:11.713Z,21.67
2019-03-06T05:15:39.273Z,23.10
2019-03-06T05:18:20.592Z,28.97
2019-03-06T05:20:48.094Z,36.07
2019-03-06T05:23:15.647Z,29.67
2019-03-06T05:25:43.152Z,26.30
2019-03-06T05:28:10.661Z,26.37
2019-03-06T05:30:38.169Z,24.37
2019-03-06T05:33:06.639Z,25.30
2019-03-06T05:36:17.689Z,20.73
2019-03-06T05:39:01.278Z,24.13
2019-03-06T05:41:28.836Z,26.97
2019-03-06T05:43:56.794Z,21.20
2019-03-06T05:46:24.286Z,21.40
2019-03-06T05:48:52.252Z,22.10
2019-03-06T05:51:19.933Z,20.80
2019-03-06T05:53:47.987Z,21.57
2019-03-06T05:56:15.509Z,20.80
2019-03-06T05:58:42.984Z,20.60
2019-03-06T06:01:10.516Z,19.47
2019-03-06T06:03:37.918Z,18.03
2019-03-06T06:06:05.518Z,18.30
2019-03-06T06:08:33.077Z,15.43
2019-03-06T06:11:00.654Z,16.40
2019-03-06T06:13:28.121Z,18.50
2019-03-06T06:15:55.800Z,17.07
2019-03-06T06:18:23.333Z,14.70
2019-03-06T06:21:00.564Z,15.07
2019-03-06T06:23:43.786Z,14.10
2019-03-06T06:26:11.380Z,12.30
2019-03-06T06:28:39.063Z,12.17
2019-03-06T06:31:06.578Z,14.40
2019-03-06T06:33:34.546Z,12.33
2019-03-06T06:36:01.974Z,13.37
2019-03-06T06:38:29.412Z,11.20
2019-03-06T06:40:56.867Z,13.37
2019-03-06T06:43:24.380Z,12.20
2019-03-06T06:45:51.841Z,15.00
2019-03-06T06:48:20.745Z,43.83
2019-03-06T06:51:01.647Z,49.40
2019-03-06T06:54:06.216Z,30.00
2019-03-06T06:57:13.302Z,16.80
2019-03-06T07:00:14.810Z,11.20
2019-03-06T07:03:39.745Z,11.43
2019-03-06T07:06:26.715Z,11.07
2019-03-06T07:09:06.829Z,18.17
2019-03-06T07:11:41.598Z,13.50
2019-03-06T07:14:19.233Z,10.97
2019-03-06T07:17:06.230Z,13.13
2019-03-06T07:19:40.962Z,11.00
2019-03-06T07:22:46.334Z,11.40
2019-03-06T07:25:32.151Z,12.37
2019-03-06T07:28:04.599Z,13.10
2019-03-06T07:30:50.597Z,13.40
2019-03-06T07:33:37.633Z,13.63
2019-03-06T07:36:33.640Z,16.37
2019-03-06T07:39:19.530Z,20.77
2019-03-06T07:42:15.538Z,21.03
2019-03-06T07:45:37.703Z,22.77
2019-03-06T07:48:14.216Z,19.57
2019-03-06T07:50:56.885Z,21.20
2019-03-06T07:54:24.146Z,16.30
2019-03-06T07:56:55.501Z,19.13
2019-03-06T07:59:23.137Z,17.90
2019-03-06T08:01:54.302Z,22.90
2019-03-06T08:04:21.786Z,18.57
2019-03-06T08:07:02.616Z,18.60
2019-03-06T08:09:30.125Z,21.40
2019-03-06T08:12:07.152Z,19.97
2019-03-06T08:14:59.716Z,17.23
2019-03-06T08:17:32.926Z,11.50
2019-03-06T08:20:14.010Z,12.90
2019-03-06T08:23:00.911Z,11.13
2019-03-06T08:25:47.104Z,11.20
2019-03-06T08:28:14.767Z,14.47
2019-03-06T08:30:49.876Z,14.10
2019-03-06T08:33:18.382Z,11.63
2019-03-06T08:35:46.168Z,12.77
2019-03-06T08:38:13.532Z,15.43
2019-03-06T08:40:41.146Z,16.80
2019-03-06T08:43:09.889Z,16.07
2019-03-06T08:45:47.634Z,14.73
2019-03-06T08:48:26.986Z,12.37
2019-03-06T08:51:00.367Z,16.87
2019-03-06T08:53:35.322Z,16.43
2019-03-06T08:56:31.156Z,19.83
2019-03-06T08:59:06.908Z,12.37
2019-03-06T09:02:00.440Z,17.17
2019-03-06T09:04:48.673Z,16.40
2019-03-06T09:07:23.828Z,16.53
2019-03-06T09:10:01.446Z,20.33
2019-03-06T09:13:06.573Z,20.63
2019-03-06T09:15:52.462Z,20.47
2019-03-06T09:18:38.496Z,17.47
2019-03-06T09:21:13.295Z,19.30
2019-03-06T09:24:18.392Z,16.30
2019-03-06T09:26:51.822Z,17.33
2019-03-06T09:29:44.878Z,20.70
2019-03-06T09:32:43.866Z,14.60
2019-03-06T09:35:27.294Z,18.47
2019-03-06T09:38:13.022Z,17.77
2019-03-06T09:41:11.540Z,14.87
2019-03-06T09:44:04.346Z,18.97
2019-03-06T09:46:54.297Z,21.47
2019-03-06T09:49:34.087Z,18.40
2019-03-06T09:52:14.056Z,14.63
2019-03-06T09:54:59.620Z,18.00
2019-03-06T09:57:36.600Z,16.53
2019-03-06T10:00:34.209Z,14.70
2019-03-06T10:03:14.428Z,19.53
2019-03-06T10:06:07.668Z,20.63
2019-03-06T10:08:41.670Z,17.00
2019-03-06T10:11:31.517Z,20.17
2019-03-06T10:14:04.045Z,16.97
2019-03-06T10:16:53.805Z,23.20
2019-03-06T10:19:29.600Z,24.00
2019-03-06T10:21:59.202Z,23.00
2019-03-06T10:24:26.862Z,15.33
2019-03-06T10:26:54.250Z,15.40
2019-03-06T10:29:22.068Z,13.27
2019-03-06T10:31:49.602Z,18.10
2019-03-06T10:34:17.418Z,18.47
2019-03-06T10:36:44.833Z,14.90
2019-03-06T10:39:14.936Z,12.23
2019-03-06T10:41:42.492Z,14.87
2019-03-06T10:44:10.331Z,11.00
2019-03-06T10:46:37.902Z,10.00
2019-03-06T10:49:05.518Z,8.97
2019-03-06T10:51:33.091Z,8.50
2019-03-06T10:54:00.606Z,6.57
2019-03-06T10:56:28.509Z,4.67
2019-03-06T10:58:56.947Z,5.73
2019-03-06T11:01:24.604Z,8.67
2019-03-06T11:04:08.789Z,6.67
2019-03-06T11:06:36.553Z,11.20
2019-03-06T11:09:07.785Z,6.57
2019-03-06T11:11:35.359Z,11.57
2019-03-06T11:14:06.472Z,7.90
2019-03-06T11:16:38.294Z,6.80
2019-03-06T11:19:03.390Z,8.10
2019-03-06T11:21:30.916Z,4.10
2019-03-06T11:23:58.374Z,4.17
2019-03-06T11:26:26.725Z,7.57
2019-03-06T11:28:54.285Z,5.43
2019-03-06T11:31:22.062Z,6.83
2019-03-06T11:33:49.508Z,8.70
2019-03-06T11:36:17.586Z,3.77
2019-03-06T11:38:45.084Z,3.20
2019-03-06T11:41:12.571Z,13.70
2019-03-06T11:43:40.225Z,6.33
2019-03-06T11:46:08.539Z,4.83
2019-03-06T11:48:36.245Z,4.20
2019-03-06T11:51:04.103Z,2.13
2019-03-06T11:53:32.950Z,5.57
2019-03-06T11:56:00.813Z,3.73
2019-03-06T11:58:28.411Z,3.17
2019-03-06T12:00:56.008Z,5.13
2019-03-06T12:03:23.787Z,6.83
2019-03-06T12:05:51.618Z,3.90
2019-03-06T12:08:19.545Z,6.83
2019-03-06T12:10:47.444Z,4.00
2019-03-06T12:13:15.930Z,4.97
2019-03-06T12:15:45.994Z,3.73
2019-03-06T12:18:14.230Z,5.20
2019-03-06T12:20:42.213Z,3.03
2019-03-06T12:23:09.652Z,5.97
2019-03-06T12:25:37.910Z,5.70
2019-03-06T12:28:07.061Z,3.60
2019-03-06T12:30:34.904Z,8.50
2019-03-06T12:33:02.731Z,3.77
2019-03-06T12:35:30.132Z,4.07
2019-03-06T12:37:57.690Z,4.93
2019-03-06T12:40:25.800Z,3.17
2019-03-06T12:42:53.220Z,2.87
2019-03-06T12:45:20.928Z,3.70
2019-03-06T12:47:55.211Z,4.33
2019-03-06T12:50:20.405Z,5.73
2019-03-06T12:52:47.983Z,3.50
2019-03-06T12:55:15.541Z,3.17
2019-03-06T12:57:43.052Z,5.27
2019-03-06T13:00:17.775Z,3.53
2019-03-06T13:02:45.599Z,2.33
2019-03-06T13:05:13.554Z,3.60
2019-03-06T13:07:41.072Z,7.97
2019-03-06T13:10:09.733Z,3.97
2019-03-06T13:12:38.242Z,3.67
2019-03-06T13:15:07.348Z,3.93
2019-03-06T13:17:36.380Z,2.83
2019-03-06T13:20:06.439Z,2.47
2019-03-06T13:22:34.022Z,3.70
2019-03-06T13:25:01.635Z,5.30
2019-03-06T13:27:29.074Z,2.83
2019-03-06T13:29:56.649Z,2.90
2019-03-06T13:32:27.198Z,3.57
2019-03-06T13:34:59.639Z,2.70
2019-03-06T13:37:27.191Z,4.20
2019-03-06T13:39:54.724Z,4.03
2019-03-06T13:42:22.274Z,2.97
2019-03-06T13:44:49.796Z,3.23
2019-03-06T13:47:17.413Z,6.67
2019-03-06T13:49:44.857Z,2.20
2019-03-06T13:52:12.656Z,4.67
2019-03-06T13:54:40.135Z,2.60
2019-03-06T13:57:07.835Z,4.47
2019-03-06T13:59:35.357Z,2.30
2019-03-06T14:02:02.952Z,2.17
2019-03-06T14:04:31.009Z,6.17
2019-03-06T14:06:58.665Z,3.97
2019-03-06T14:09:26.512Z,3.67
2019-03-06T14:11:54.000Z,3.73
2019-03-06T14:14:21.390Z,3.13
2019-03-06T14:16:48.885Z,2.97
2019-03-06T14:19:16.408Z,5.27
2019-03-06T14:21:43.977Z,5.23
2019-03-06T14:24:11.553Z,3.27
2019-03-06T14:26:39.421Z,3.73
2019-03-06T14:29:07.089Z,3.83
2019-03-06T14:31:34.544Z,2.83
2019-03-06T14:34:02.127Z,4.23
2019-03-06T14:36:30.380Z,2.27
2019-03-06T14:38:57.927Z,4.73
2019-03-06T14:41:25.748Z,3.03
2019-03-06T14:43:53.230Z,4.63
2019-03-06T14:46:20.735Z,3.03
2019-03-06T14:48:48.258Z,4.53
2019-03-06T14:51:15.888Z,2.33
2019-03-06T14:53:43.538Z,3.77
2019-03-06T14:56:11.203Z,5.03
2019-03-06T14:58:38.759Z,3.60
2019-03-06T15:01:06.537Z,3.10
2019-03-06T15:03:33.967Z,5.00
2019-03-06T15:06:01.731Z,2.73
2019-03-06T15:08:29.572Z,2.50
2019-03-06T15:10:57.205Z,3.73
2019-03-06T15:13:24.720Z,6.50
2019-03-06T15:15:52.684Z,2.40
2019-03-06T15:18:20.535Z,2.50
2019-03-06T15:20:47.922Z,5.37
2019-03-06T15:23:15.409Z,4.67
2019-03-06T15:25:42.903Z,5.30
2019-03-06T15:28:10.601Z,3.70
2019-03-06T15:30:39.889Z,6.53
2019-03-06T15:33:07.765Z,8.57
2019-03-06T15:35:35.217Z,7.10
2019-03-06T15:38:04.491Z,10.43
2019-03-06T15:40:32.537Z,8.13
2019-03-06T15:43:00.315Z,8.80
2019-03-06T15:45:28.899Z,12.40
2019-03-06T15:47:56.777Z,6.77
2019-03-06T15:50:24.516Z,9.77
2019-03-06T15:52:52.184Z,8.97
2019-03-06T15:55:22.995Z,11.40
2019-03-06T15:57:50.454Z,9.03
2019-03-06T16:00:32.214Z,8.87
2019-03-06T16:02:59.945Z,11.87
2019-03-06T16:05:27.338Z,10.60
2019-03-06T16:07:56.488Z,11.57
2019-03-06T16:10:24.264Z,8.97
2019-03-06T16:12:51.855Z,9.60
2019-03-06T16:15:20.057Z,8.93
2019-03-06T16:17:47.527Z,9.87
2019-03-06T16:20:16.441Z,11.43
2019-03-06T16:22:44.719Z,4.40
2019-03-06T16:25:13.289Z,7.37
2019-03-06T16:27:40.879Z,5.43
2019-03-06T16:30:10.390Z,7.17
2019-03-06T16:32:37.976Z,8.17
2019-03-06T16:35:07.432Z,10.37
2019-03-06T16:37:35.462Z,10.27
2019-03-06T16:40:08.026Z,8.43
2019-03-06T16:42:35.651Z,11.47
2019-03-06T16:45:04.129Z,15.73
2019-03-06T16:47:31.697Z,11.70
2019-03-06T16:49:59.175Z,13.23
2019-03-06T16:52:26.694Z,17.47
2019-03-06T16:54:54.388Z,18.93
2019-03-06T16:57:23.859Z,20.03
2019-03-06T16:59:51.728Z,22.00
2019-03-06T17:02:19.157Z,13.77
2019-03-06T17:04:46.880Z,13.43
2019-03-06T17:07:14.424Z,14.83
2019-03-06T17:09:41.854Z,25.83
2019-03-06T17:12:09.709Z,21.50
2019-03-06T17:14:37.611Z,15.63
2019-03-06T17:17:05.610Z,15.73
2019-03-06T17:19:33.127Z,15.20
2019-03-06T17:22:00.777Z,19.00
2019-03-06T17:24:28.387Z,8.93
2019-03-06T17:26:55.776Z,11.50
2019-03-06T17:29:23.276Z,15.50
2019-03-06T17:31:50.828Z,13.53
2019-03-06T17:34:18.363Z,17.20
2019-03-06T17:36:46.312Z,19.83
2019-03-06T17:39:15.397Z,16.47
2019-03-06T17:41:42.930Z,15.00
2019-03-06T17:44:11.222Z,19.63
2019-03-06T17:46:38.891Z,17.07
2019-03-06T17:49:06.674Z,16.67
2019-03-06T17:51:34.268Z,14.60
2019-03-06T17:54:01.824Z,14.23
2019-03-06T17:56:29.604Z,11.13
2019-03-06T17:58:57.093Z,18.17
2019-03-06T18:01:24.737Z,14.13
2019-03-06T18:04:05.427Z,14.90
2019-03-06T18:06:32.932Z,13.20
2019-03-06T18:09:00.460Z,16.10
2019-03-06T18:11:27.948Z,17.07
2019-03-06T18:13:55.495Z,14.33
2019-03-06T18:16:23.072Z,11.47
2019-03-06T18:18:50.888Z,12.10
2019-03-06T18:21:18.392Z,17.30
2019-03-06T18:23:45.915Z,16.70
2019-03-06T18:26:13.465Z,19.00
2019-03-06T18:28:40.928Z,13.40
2019-03-06T18:31:08.625Z,16.13
2019-03-06T18:33:36.164Z,15.97
2019-03-06T18:36:03.772Z,15.67
2019-03-06T18:38:31.221Z,13.43
2019-03-06T18:40:58.785Z,14.07
2019-03-06T18:43:26.339Z,10.67
2019-03-06T18:45:53.823Z,14.03
2019-03-06T18:48:21.445Z,13.90
2019-03-06T18:50:49.053Z,11.93
2019-03-06T18:53:16.791Z,14.00
2019-03-06T18:55:44.232Z,15.27
2019-03-06T18:58:13.078Z,18.77
2019-03-06T19:00:41.136Z,15.73
2019-03-06T19:03:10.236Z,14.00
2019-03-06T19:05:37.860Z,15.97
2019-03-06T19:08:05.432Z,16.07
2019-03-06T19:10:33.735Z,18.33
2019-03-06T19:13:01.237Z,18.83
2019-03-06T19:15:29.207Z,17.27
2019-03-06T19:17:57.041Z,14.73
2019-03-06T19:20:24.751Z,14.10
2019-03-06T19:22:53.075Z,14.33
2019-03-06T19:25:21.073Z,13.73
2019-03-06T19:27:49.100Z,12.40
2019-03-06T19:30:18.648Z,19.97
2019-03-06T19:32:46.647Z,22.43
2019-03-06T19:35:14.631Z,15.33
2019-03-06T19:37:42.287Z,10.83
2019-03-06T19:40:10.055Z,13.67
2019-03-06T19:42:37.506Z,10.77
2019-03-06T19:45:05.638Z,11.10
2019-03-06T19:47:33.104Z,12.33
2019-03-06T19:50:00.666Z,11.63
2019-03-06T19:52:28.189Z,12.13
2019-03-06T19:54:55.628Z,15.03
2019-03-06T19:57:23.732Z,15.33
2019-03-06T19:59:51.612Z,13.37
2019-03-06T20:02:19.281Z,9.93
2019-03-06T20:04:46.823Z,12.23
2019-03-06T20:07:14.288Z,8.20
2019-03-06T20:09:41.764Z,11.10
2019-03-06T20:12:09.332Z,7.40
2019-03-06T20:14:37.051Z,9.57
2019-03-06T20:17:04.758Z,8.57
2019-03-06T20:19:32.460Z,10.00
2019-03-06T20:22:02.036Z,10.33
2019-03-06T20:24:29.740Z,10.17
2019-03-06T20:26:57.159Z,10.80
2019-03-06T20:29:25.039Z,8.77
2019-03-06T20:31:53.088Z,7.47
2019-03-06T20:34:20.579Z,6.10
2019-03-06T20:36:48.257Z,8.37
2019-03-06T20:39:16.387Z,5.90
2019-03-06T20:41:44.120Z,9.37
2019-03-06T20:44:11.799Z,11.87
2019-03-06T20:46:39.263Z,13.57
2019-03-06T20:49:06.782Z,8.83
2019-03-06T20:51:34.377Z,8.60
2019-03-06T20:54:02.157Z,8.40
2019-03-06T20:56:29.748Z,9.17
2019-03-06T20:58:57.867Z,8.53
2019-03-06T21:01:25.913Z,7.23
2019-03-06T21:03:53.586Z,7.23
2019-03-06T21:06:21.806Z,7.60
2019-03-06T21:08:49.245Z,8.37
2019-03-06T21:11:16.876Z,9.83
2019-03-06T21:13:44.425Z,7.17
2019-03-06T21:16:11.811Z,6.70
2019-03-06T21:18:39.507Z,6.27
2019-03-06T21:21:07.059Z,7.57
2019-03-06T21:23:34.566Z,5.93
2019-03-06T21:26:02.166Z,5.10
2019-03-06T21:28:29.605Z,6.63
2019-03-06T21:30:57.181Z,5.00
2019-03-06T21:33:24.644Z,4.70
2019-03-06T21:35:52.415Z,4.87
2019-03-06T21:38:20.413Z,6.77
2019-03-06T21:40:47.852Z,5.50
2019-03-06T21:43:15.313Z,8.67
2019-03-06T21:45:42.804Z,7.43
2019-03-06T21:48:10.291Z,6.43
2019-03-06T21:50:37.754Z,8.73
2019-03-06T21:53:05.317Z,8.80
2019-03-06T21:55:32.759Z,7.43
2019-03-06T21:58:00.224Z,5.83
2019-03-06T22:00:27.605Z,27.87
2019-03-06T22:02:55.102Z,23.03
2019-03-06T22:05:22.642Z,20.00
2019-03-06T22:07:50.860Z,18.30
2019-03-06T22:10:18.974Z,22.77
2019-03-06T22:12:46.402Z,19.67
2019-03-06T22:15:14.216Z,16.47
2019-03-06T22:17:41.682Z,14.00
2019-03-06T22:20:10.157Z,13.87
2019-03-06T22:22:37.631Z,17.07
2019-03-06T22:25:05.416Z,15.10
2019-03-06T22:27:33.286Z,15.30
2019-03-06T22:30:00.724Z,11.73
2019-03-06T22:32:28.121Z,11.80
2019-03-06T22:34:55.637Z,12.07
2019-03-06T22:37:23.117Z,12.77
2019-03-06T22:39:50.552Z,11.60
2019-03-06T22:42:17.976Z,15.50
2019-03-06T22:44:45.429Z,10.40
2019-03-06T22:47:12.906Z,11.27
2019-03-06T22:49:40.367Z,11.43
2019-03-06T22:52:07.773Z,8.60
2019-03-06T22:54:35.386Z,9.50
2019-03-06T22:57:02.842Z,10.83
2019-03-06T22:59:30.276Z,10.60
2019-03-06T23:01:58.116Z,8.67
2019-03-06T23:04:25.581Z,10.03
2019-03-06T23:06:53.054Z,9.93
2019-03-06T23:09:20.687Z,8.17
2019-03-06T23:11:48.253Z,9.63
2019-03-06T23:14:15.816Z,7.87
2019-03-06T23:16:43.214Z,12.33
2019-03-06T23:19:10.631Z,9.27
2019-03-06T23:21:38.217Z,8.47
2019-03-06T23:24:05.642Z,6.07
2019-03-06T23:26:42.245Z,7.50
2019-03-06T23:29:02.545Z,7.23
2019-03-06T23:31:29.985Z,6.27
2019-03-06T23:33:57.572Z,7.87
2019-03-06T23:36:25.025Z,6.63
2019-03-06T23:38:52.476Z,6.43
2019-03-06T23:41:19.886Z,5.77
2019-03-06T23:43:47.388Z,8.87
2019-03-06T23:46:14.847Z,6.43
2019-03-06T23:48:42.308Z,8.37
2019-03-06T23:51:16.353Z,5.93
2019-03-06T23:53:54.444Z,8.23
2019-03-06T23:56:22.010Z,8.40
2019-03-06T23:58:49.446Z,7.63
